2J3

Louisville Municipal Airport

Louisville, Georgia, USA
METAR K2J3 221955Z AUTO 21004KT 10SM SCT050 32/20 A2975 RMK AO2 T03160197
Observed Flight Rules
Jul-22 @ 19:55 UTC (15 minutes ago) Visual Flight Rules
Wind Visibility Clouds
210° at 4 knots 10 miles
  • Scattered at 5,000' AGL
Temperatures Readings
Current 32°C / 90°F
Dewpoint 20°C / 68°F
Humidity 49%
Altimeter 29.75" Hg
Pressure 1007 hPa
Elevation 100
METAR K2J3 221955Z AUTO 21004KT 10SM SCT050 32/20 A2975 RMK AO2 T03160197
Observed Flight Rules
Jul-22 @ 19:55 UTC
(15 minutes ago)
VFR
Wind Visibility
210° at 4 knots 10 miles
Clouds
  • Scattered at 5,000' AGL
Temperature Dewpoint
32°C / 90°F 20°C / 68°F
Humidity Altimeter Pressure
49% 29.75" Hg 1007 hPa